Time;durP1;ratioP1;P1;durP2;ratioP2;P2;SDS_P1;SDS_P2;PMS_P1;PMS_P2;Temp;Humidity;BMP_temperature;BMP_pressure;BME280_temperature;BME280_humidity;BME280_pressure;Samples;Min_cycle;Max_cycle;Signal;HPM_P1;HPM_P2
2022/10/10 00:00:31;;;;;;;2.60;1.80;;;;;;;;;;5095411;28;20043;-84
2022/10/10 00:02:56;;;;;;;2.25;1.60;;;;;;;;;;5096469;28;20654;-83
2022/10/10 00:05:22;;;;;;;7.18;2.13;;;;;;;;;;5096864;28;20012;-83
2022/10/10 00:07:47;;;;;;;4.32;2.58;;;;;;;;;;5109158;28;20471;-85
2022/10/10 00:10:13;;;;;;;2.58;2.00;;;;;;;;;;5113024;28;20019;-84
2022/10/10 00:12:38;;;;;;;3.15;2.13;;;;;;;;;;5114729;28;20101;-85
2022/10/10 00:15:04;;;;;;;2.03;1.65;;;;;;;;;;5112854;28;20494;-84
2022/10/10 00:17:30;;;;;;;2.97;1.90;;;;;;;;;;5112610;28;20034;-85
2022/10/10 00:19:55;;;;;;;2.13;1.58;;;;;;;;;;5115054;28;20486;-86
2022/10/10 00:22:21;;;;;;;1.65;1.52;;;;;;;;;;5092709;28;20031;-85
2022/10/10 00:24:46;;;;;;;3.20;2.38;;;;;;;;;;5114595;28;20559;-89
2022/10/10 00:27:12;;;;;;;2.33;1.50;;;;;;;;;;5091108;28;20028;-83
2022/10/10 00:29:37;;;;;;;3.15;2.03;;;;;;;;;;5113999;28;20061;-84
2022/10/10 00:32:03;;;;;;;2.65;1.52;;;;;;;;;;5113768;28;20110;-84
2022/10/10 00:34:28;;;;;;;2.53;2.30;;;;;;;;;;5114671;28;20375;-83
2022/10/10 00:36:54;;;;;;;2.35;1.55;;;;;;;;;;5095694;28;20027;-87
2022/10/10 00:39:19;;;;;;;1.45;1.15;;;;;;;;;;5096050;28;20031;-86
2022/10/10 00:41:45;;;;;;;4.30;2.08;;;;;;;;;;5114460;28;20028;-85
2022/10/10 00:44:13;;;;;;;2.35;1.83;;;;;;;;;;5114202;28;20034;-87
2022/10/10 00:46:38;;;;;;;3.17;1.80;;;;;;;;;;5113957;28;20379;-89
2022/10/10 00:49:08;;;;;;;6.70;3.30;;;;;;;;;;5112811;28;20024;-84
2022/10/10 00:51:35;;;;;;;2.80;1.90;;;;;;;;;;5094229;28;20047;-85
2022/10/10 00:54:04;;;;;;;2.53;1.73;;;;;;;;;;5113290;28;20023;-84
2022/10/10 00:56:35;;;;;;;2.80;2.00;;;;;;;;;;5113489;28;20055;-83
2022/10/10 00:59:03;;;;;;;1.90;1.77;;;;;;;;;;5112846;28;20027;-86
2022/10/10 01:01:29;;;;;;;2.38;1.52;;;;;;;;;;5112429;28;20028;-86
2022/10/10 01:03:59;;;;;;;2.95;1.60;;;;;;;;;;5093040;28;20429;-84
2022/10/10 01:06:25;;;;;;;2.15;1.95;;;;;;;;;;5094782;28;20479;-84
2022/10/10 01:08:52;;;;;;;2.28;1.55;;;;;;;;;;5093613;28;20140;-84
2022/10/10 01:11:41;;;;;;;2.10;1.83;;;;;;;;;;5113677;28;20019;-87
2022/10/10 01:14:40;;;;;;;1.63;1.27;;;;;;;;;;5113414;28;20032;-84
2022/10/10 01:17:23;;;;;;;2.90;2.58;;;;;;;;;;5094588;28;20066;-86
2022/10/10 01:20:07;;;;;;;2.22;1.50;;;;;;;;;;5111621;28;20421;-83
2022/10/10 01:22:57;;;;;;;1.42;1.08;;;;;;;;;;5092901;28;20030;-86
2022/10/10 01:25:29;;;;;;;2.15;1.65;;;;;;;;;;5094024;28;20079;-84
2022/10/10 01:28:17;;;;;;;2.45;2.05;;;;;;;;;;5093758;28;20039;-83
2022/10/10 01:30:43;;;;;;;2.13;1.63;;;;;;;;;;5112788;28;20425;-83
2022/10/10 01:33:15;;;;;;;1.50;1.40;;;;;;;;;;5094858;28;20027;-83
2022/10/10 01:36:10;;;;;;;3.38;1.58;;;;;;;;;;5113058;28;20368;-84
2022/10/10 01:38:49;;;;;;;2.47;1.27;;;;;;;;;;5091093;28;20070;-85
2022/10/10 01:41:23;;;;;;;3.72;1.88;;;;;;;;;;5112148;28;20425;-83
2022/10/10 01:43:53;;;;;;;1.33;1.15;;;;;;;;;;5109975;28;20023;-84
2022/10/10 01:46:18;;;;;;;;;;;;;;;;;;5110136;28;20046;-84
2022/10/10 01:48:49;;;;;;;5.22;1.88;;;;;;;;;;5112758;28;19916;-84
2022/10/10 01:51:33;;;;;;;2.15;1.65;;;;;;;;;;5092936;28;20027;-85
2022/10/10 01:54:21;;;;;;;2.50;1.55;;;;;;;;;;5111354;28;20020;-85
2022/10/10 01:56:46;;;;;;;2.67;1.27;;;;;;;;;;5093871;28;20102;-83
2022/10/10 01:59:22;;;;;;;2.33;1.65;;;;;;;;;;5110174;28;20111;-83
2022/10/10 02:02:14;;;;;;;2.40;2.00;;;;;;;;;;5090446;28;20395;-82
2022/10/10 02:04:43;;;;;;;3.00;1.63;;;;;;;;;;5090870;28;20028;-85
2022/10/10 02:07:18;;;;;;;1.23;1.13;;;;;;;;;;5093128;28;20055;-84
2022/10/10 02:09:45;;;;;;;1.65;1.52;;;;;;;;;;5106771;28;20038;-85
2022/10/10 02:12:12;;;;;;;2.67;1.35;;;;;;;;;;5112643;28;20049;-83
2022/10/10 02:14:52;;;;;;;1.33;1.23;;;;;;;;;;5111759;28;20020;-83
2022/10/10 02:17:18;;;;;;;2.70;2.25;;;;;;;;;;5105865;28;20099;-86
2022/10/10 02:19:56;;;;;;;1.70;1.27;;;;;;;;;;5093259;28;20028;-84
2022/10/10 02:22:24;;;;;;;2.45;1.50;;;;;;;;;;5092633;28;20019;-84
2022/10/10 02:24:51;;;;;;;1.65;1.30;;;;;;;;;;5093605;28;20063;-85
2022/10/10 02:27:29;;;;;;;2.65;1.77;;;;;;;;;;5092914;28;20026;-83
2022/10/10 02:29:57;;;;;;;1.17;1.08;;;;;;;;;;5093718;28;20023;-83
2022/10/10 02:32:37;;;;;;;3.88;2.22;;;;;;;;;;5091628;28;20091;-83
2022/10/10 02:35:08;;;;;;;2.97;1.85;;;;;;;;;;5092557;28;20130;-85
2022/10/10 02:37:39;;;;;;;2.38;1.77;;;;;;;;;;5092591;28;20028;-85
2022/10/10 02:40:07;;;;;;;2.47;1.30;;;;;;;;;;5094166;28;20031;-85
2022/10/10 02:42:34;;;;;;;3.10;2.20;;;;;;;;;;5093745;28;20110;-83
2022/10/10 02:45:01;;;;;;;2.38;2.13;;;;;;;;;;5091880;28;20031;-82
2022/10/10 02:47:27;;;;;;;3.35;2.42;;;;;;;;;;5094033;28;20023;-83
2022/10/10 02:49:52;;;;;;;1.65;1.40;;;;;;;;;;5112322;28;20429;-85
2022/10/10 02:52:18;;;;;;;2.03;1.80;;;;;;;;;;5111711;28;20035;-85
2022/10/10 02:54:43;;;;;;;1.98;1.48;;;;;;;;;;5094174;28;20032;-83
2022/10/10 02:57:09;;;;;;;2.50;2.20;;;;;;;;;;5093582;28;20100;-81
2022/10/10 02:59:35;;;;;;;2.58;2.03;;;;;;;;;;5091502;28;20486;-86
2022/10/10 03:02:00;;;;;;;2.20;1.65;;;;;;;;;;5109668;28;20832;-85
2022/10/10 03:04:25;;;;;;;1.98;1.40;;;;;;;;;;5111707;28;20031;-83
2022/10/10 03:06:52;;;;;;;1.85;1.58;;;;;;;;;;5094036;28;20078;-84
2022/10/10 03:09:18;;;;;;;1.10;1.02;;;;;;;;;;5111379;28;20024;-83
2022/10/10 03:11:43;;;;;;;3.90;1.48;;;;;;;;;;5112080;28;20499;-85
2022/10/10 03:14:08;;;;;;;3.50;2.25;;;;;;;;;;5111229;28;20024;-84
2022/10/10 03:16:34;;;;;;;0.85;0.85;;;;;;;;;;5092822;28;20024;-86
2022/10/10 03:18:59;;;;;;;1.83;1.67;;;;;;;;;;5111967;28;20027;-83
2022/10/10 03:21:25;;;;;;;1.50;1.40;;;;;;;;;;5109581;28;20103;-86
2022/10/10 03:23:50;;;;;;;1.75;1.23;;;;;;;;;;5091146;28;20047;-85
2022/10/10 03:26:15;;;;;;;3.33;1.88;;;;;;;;;;5093582;28;20116;-85
2022/10/10 03:28:41;;;;;;;3.20;1.98;;;;;;;;;;5110313;28;20526;-81
2022/10/10 03:31:06;;;;;;;1.83;1.45;;;;;;;;;;5111057;28;20016;-85
2022/10/10 03:33:33;;;;;;;3.10;1.77;;;;;;;;;;5115622;28;20023;-85
2022/10/10 03:36:01;;;;;;;1.63;1.00;;;;;;;;;;5116050;28;20062;-85
2022/10/10 03:38:26;;;;;;;1.00;1.00;;;;;;;;;;5097138;28;20069;-86
2022/10/10 03:40:52;;;;;;;1.48;1.15;;;;;;;;;;5111404;28;20060;-84
2022/10/10 03:43:17;;;;;;;1.42;1.00;;;;;;;;;;5113930;28;20023;-86
2022/10/10 03:45:44;;;;;;;0.73;0.73;;;;;;;;;;5097190;28;20023;-83
2022/10/10 03:48:10;;;;;;;1.77;1.45;;;;;;;;;;5096958;28;20383;-86
2022/10/10 03:50:36;;;;;;;0.70;0.70;;;;;;;;;;5115408;28;20023;-86
2022/10/10 03:53:02;;;;;;;1.10;0.98;;;;;;;;;;5092870;28;20412;-85
2022/10/10 03:55:27;;;;;;;2.38;1.23;;;;;;;;;;5093845;28;20035;-84
2022/10/10 03:57:53;;;;;;;1.80;1.27;;;;;;;;;;5113264;28;20023;-85
2022/10/10 04:00:18;;;;;;;1.77;1.63;;;;;;;;;;5115403;28;20031;-88
2022/10/10 04:02:44;;;;;;;2.00;1.40;;;;;;;;;;5115651;28;20030;-86
2022/10/10 04:05:09;;;;;;;2.35;1.60;;;;;;;;;;5096636;28;20030;-86
2022/10/10 04:07:35;;;;;;;1.13;1.05;;;;;;;;;;5096872;28;20101;-86
2022/10/10 04:10:01;;;;;;;1.85;1.35;;;;;;;;;;5093802;28;20035;-86
2022/10/10 04:12:26;;;;;;;1.52;1.25;;;;;;;;;;5093445;28;20422;-83
2022/10/10 04:14:51;;;;;;;1.10;1.00;;;;;;;;;;5089724;28;20020;-82
2022/10/10 04:17:17;;;;;;;1.55;1.00;;;;;;;;;;5093432;28;20027;-85
2022/10/10 04:19:42;;;;;;;2.10;1.50;;;;;;;;;;5112965;28;20481;-84
2022/10/10 04:22:08;;;;;;;2.05;1.73;;;;;;;;;;5092511;28;20115;-83
2022/10/10 04:24:33;;;;;;;4.35;1.65;;;;;;;;;;5091454;28;20036;-83
2022/10/10 04:26:58;;;;;;;1.73;1.40;;;;;;;;;;5095501;28;20047;-86
2022/10/10 04:29:24;;;;;;;1.35;1.15;;;;;;;;;;5109622;28;20035;-80
2022/10/10 04:31:49;;;;;;;1.42;1.33;;;;;;;;;;5111606;28;20557;-81
2022/10/10 04:34:15;;;;;;;1.23;1.08;;;;;;;;;;5110372;28;20480;-82
2022/10/10 04:36:41;;;;;;;2.75;1.40;;;;;;;;;;5112099;28;20032;-82
2022/10/10 04:39:07;;;;;;;0.95;0.88;;;;;;;;;;5092958;28;20360;-81
2022/10/10 04:41:32;;;;;;;2.17;1.45;;;;;;;;;;5090103;28;20026;-81
2022/10/10 04:43:58;;;;;;;1.95;1.77;;;;;;;;;;5112516;28;20515;-83
2022/10/10 04:46:23;;;;;;;0.90;0.90;;;;;;;;;;5109959;28;20055;-82
2022/10/10 04:48:49;;;;;;;1.35;1.25;;;;;;;;;;5111859;28;20039;-82
2022/10/10 04:51:14;;;;;;;2.15;1.25;;;;;;;;;;5094547;28;20047;-82
2022/10/10 04:53:40;;;;;;;1.17;1.08;;;;;;;;;;5111207;28;20043;-81
2022/10/10 04:56:06;;;;;;;1.38;1.27;;;;;;;;;;5094430;28;20056;-82
2022/10/10 04:58:31;;;;;;;1.10;1.00;;;;;;;;;;5107332;28;20027;-81
2022/10/10 05:00:57;;;;;;;1.45;1.25;;;;;;;;;;5092860;28;20467;-82
2022/10/10 05:03:23;;;;;;;1.15;0.93;;;;;;;;;;5090969;28;20019;-81
2022/10/10 05:05:49;;;;;;;1.45;1.13;;;;;;;;;;5110297;28;20050;-82
2022/10/10 05:08:15;;;;;;;1.02;0.85;;;;;;;;;;5110340;28;20030;-83
2022/10/10 05:10:40;;;;;;;1.77;1.20;;;;;;;;;;5112856;28;20037;-80
2022/10/10 05:13:09;;;;;;;1.63;1.50;;;;;;;;;;5112007;28;20387;-82
2022/10/10 05:15:35;;;;;;;1.55;1.42;;;;;;;;;;5111798;28;20368;-82
2022/10/10 05:18:01;;;;;;;2.10;1.73;;;;;;;;;;5112137;28;20030;-80
2022/10/10 05:20:27;;;;;;;6.10;3.05;;;;;;;;;;5109828;28;20106;-82
2022/10/10 05:22:52;;;;;;;1.33;1.23;;;;;;;;;;5091450;28;20114;-83
2022/10/10 05:25:18;;;;;;;1.50;1.15;;;;;;;;;;5110633;28;20043;-81
2022/10/10 05:27:44;;;;;;;1.70;1.30;;;;;;;;;;5091432;28;20095;-82
2022/10/10 05:30:10;;;;;;;2.00;1.83;;;;;;;;;;5108965;28;20715;-81
2022/10/10 05:32:35;;;;;;;1.75;1.17;;;;;;;;;;5112002;28;20043;-83
2022/10/10 05:35:02;;;;;;;7.38;2.08;;;;;;;;;;5109126;28;20023;-81
2022/10/10 05:37:27;;;;;;;2.47;1.73;;;;;;;;;;5103924;28;20103;-82
2022/10/10 05:39:52;;;;;;;2.83;2.17;;;;;;;;;;5105734;28;20102;-83
2022/10/10 05:42:18;;;;;;;2.72;2.42;;;;;;;;;;5093048;28;20115;-81
2022/10/10 05:44:43;;;;;;;4.90;3.30;;;;;;;;;;5108449;28;20391;-81
2022/10/10 05:47:09;;;;;;;5.15;4.05;;;;;;;;;;5111043;28;20138;-80
2022/10/10 05:49:34;;;;;;;3.83;3.33;;;;;;;;;;5107810;28;20483;-81
2022/10/10 05:51:59;;;;;;;4.15;3.40;;;;;;;;;;5108809;28;20039;-83
2022/10/10 05:54:25;;;;;;;3.63;2.97;;;;;;;;;;5106199;28;20024;-82
2022/10/10 05:56:50;;;;;;;5.20;3.70;;;;;;;;;;5106176;28;20140;-82
2022/10/10 05:59:16;;;;;;;4.45;4.07;;;;;;;;;;5088920;28;20032;-84
2022/10/10 06:01:41;;;;;;;6.13;4.40;;;;;;;;;;5110306;28;20100;-82
2022/10/10 06:04:07;;;;;;;5.88;4.80;;;;;;;;;;5103625;28;20051;-83
2022/10/10 06:06:32;;;;;;;3.90;3.50;;;;;;;;;;5109789;28;20391;-83
2022/10/10 06:08:58;;;;;;;6.90;4.07;;;;;;;;;;5107544;28;20053;-80
2022/10/10 06:11:24;;;;;;;6.15;4.25;;;;;;;;;;5090150;28;20023;-80
2022/10/10 06:13:53;;;;;;;4.38;3.15;;;;;;;;;;5110213;28;20061;-82
2022/10/10 06:16:22;;;;;;;4.65;3.42;;;;;;;;;;5090246;28;20034;-82
2022/10/10 06:18:48;;;;;;;5.60;4.35;;;;;;;;;;5109612;28;20455;-82
2022/10/10 06:21:13;;;;;;;4.22;2.83;;;;;;;;;;5108619;28;20093;-82
2022/10/10 06:23:39;;;;;;;7.00;4.97;;;;;;;;;;5107928;28;20063;-83
2022/10/10 06:26:05;;;;;;;4.60;3.53;;;;;;;;;;5106644;28;20106;-83
2022/10/10 06:28:31;;;;;;;5.55;3.67;;;;;;;;;;5110690;28;20043;-81
2022/10/10 06:31:01;;;;;;;4.00;3.35;;;;;;;;;;5108521;28;20028;-82
2022/10/10 06:33:27;;;;;;;7.53;4.93;;;;;;;;;;5105929;28;20024;-82
2022/10/10 06:35:53;;;;;;;9.35;6.97;;;;;;;;;;5089702;28;20165;-81
2022/10/10 06:38:18;;;;;;;6.32;5.05;;;;;;;;;;5105254;28;20134;-82
2022/10/10 06:40:44;;;;;;;4.43;3.03;;;;;;;;;;5108746;28;20028;-82
2022/10/10 06:43:11;;;;;;;6.78;4.38;;;;;;;;;;5108552;28;20039;-79
2022/10/10 06:45:39;;;;;;;5.88;3.38;;;;;;;;;;5105339;28;20023;-82
2022/10/10 06:48:05;;;;;;;6.25;4.03;;;;;;;;;;5088708;28;20036;-81
2022/10/10 06:50:30;;;;;;;4.05;3.10;;;;;;;;;;5088769;28;20384;-81
2022/10/10 06:52:55;;;;;;;4.63;3.45;;;;;;;;;;5084765;28;20464;-81
2022/10/10 06:55:21;;;;;;;4.40;3.33;;;;;;;;;;5108605;28;20475;-82
2022/10/10 06:57:46;;;;;;;5.65;3.58;;;;;;;;;;5107245;28;20028;-81
2022/10/10 07:00:12;;;;;;;6.03;2.05;;;;;;;;;;5089284;28;20046;-81
2022/10/10 07:02:39;;;;;;;2.83;2.50;;;;;;;;;;5088532;28;20406;-81
2022/10/10 07:05:16;;;;;;;4.22;2.47;;;;;;;;;;5085482;28;20487;-82
2022/10/10 07:07:43;;;;;;;4.22;3.03;;;;;;;;;;5094228;28;20043;-84
2022/10/10 07:10:13;;;;;;;4.25;3.28;;;;;;;;;;5114841;28;20076;-81
2022/10/10 07:12:39;;;;;;;3.17;2.08;;;;;;;;;;5086723;28;20533;-82
2022/10/10 07:15:05;;;;;;;3.33;2.10;;;;;;;;;;5113322;28;20024;-82
2022/10/10 07:17:31;;;;;;;5.25;2.85;;;;;;;;;;5113332;28;20059;-82
2022/10/10 07:19:57;;;;;;;4.30;3.38;;;;;;;;;;5092863;28;20059;-81
2022/10/10 07:22:22;;;;;;;2.80;2.50;;;;;;;;;;5111859;28;20023;-82
2022/10/10 07:24:48;;;;;;;6.18;2.40;;;;;;;;;;5091469;28;20050;-82
2022/10/10 07:27:13;;;;;;;3.00;2.65;;;;;;;;;;5110393;28;20024;-82
2022/10/10 07:29:39;;;;;;;4.65;2.25;;;;;;;;;;5111428;28;20059;-81
2022/10/10 07:32:04;;;;;;;2.20;1.75;;;;;;;;;;5109475;28;20027;-82
2022/10/10 07:34:30;;;;;;;3.35;2.45;;;;;;;;;;5101753;28;20058;-81
2022/10/10 07:36:55;;;;;;;2.65;2.05;;;;;;;;;;5110538;28;20173;-82
2022/10/10 07:39:23;;;;;;;3.33;2.47;;;;;;;;;;5107163;28;20020;-81
2022/10/10 07:41:49;;;;;;;3.72;2.10;;;;;;;;;;5110577;28;20543;-81
2022/10/10 07:44:15;;;;;;;2.90;1.98;;;;;;;;;;5107326;28;20027;-82
2022/10/10 07:46:40;;;;;;;4.72;2.72;;;;;;;;;;5092376;28;20061;-80
2022/10/10 07:49:06;;;;;;;4.18;2.42;;;;;;;;;;5091639;28;20528;-81
2022/10/10 07:51:31;;;;;;;5.00;2.45;;;;;;;;;;5111929;28;20128;-82
2022/10/10 07:53:57;;;;;;;4.47;2.60;;;;;;;;;;5092325;28;20019;-82
2022/10/10 07:56:22;;;;;;;3.45;2.90;;;;;;;;;;5109689;28;20023;-81
2022/10/10 07:58:47;;;;;;;4.43;3.15;;;;;;;;;;5108171;28;20031;-82
2022/10/10 08:01:13;;;;;;;3.85;3.17;;;;;;;;;;5112239;28;20944;-81
2022/10/10 08:03:39;;;;;;;2.85;2.35;;;;;;;;;;5113451;28;20028;-81
2022/10/10 08:06:07;;;;;;;2.22;1.92;;;;;;;;;;5107792;28;20027;-81
2022/10/10 08:08:33;;;;;;;4.75;1.60;;;;;;;;;;5091698;28;20449;-81
2022/10/10 08:10:58;;;;;;;2.42;1.90;;;;;;;;;;5111543;28;20111;-84
2022/10/10 08:13:25;;;;;;;2.38;1.95;;;;;;;;;;5109651;28;20471;-81
2022/10/10 08:15:52;;;;;;;2.40;1.75;;;;;;;;;;5093113;28;20023;-82
2022/10/10 08:18:18;;;;;;;3.40;1.90;;;;;;;;;;5109889;28;20046;-82
2022/10/10 08:20:43;;;;;;;3.05;1.95;;;;;;;;;;5109332;27;20099;-83
2022/10/10 08:23:09;;;;;;;2.53;1.50;;;;;;;;;;5110007;28;20386;-83
2022/10/10 08:25:34;;;;;;;1.75;1.48;;;;;;;;;;5093685;28;20024;-85
2022/10/10 08:28:00;;;;;;;1.35;1.25;;;;;;;;;;5115047;28;20111;-86
2022/10/10 08:30:25;;;;;;;2.50;1.77;;;;;;;;;;5114368;28;20047;-85
2022/10/10 08:32:50;;;;;;;5.57;1.90;;;;;;;;;;5112931;28;20046;-84
2022/10/10 08:35:16;;;;;;;2.60;1.77;;;;;;;;;;5095335;28;20032;-84
2022/10/10 08:37:41;;;;;;;2.22;1.63;;;;;;;;;;5114831;28;20020;-85
2022/10/10 08:40:09;;;;;;;2.20;1.50;;;;;;;;;;5097132;28;20080;-83
2022/10/10 08:42:55;;;;;;;1.67;1.40;;;;;;;;;;5095054;28;20051;-86
2022/10/10 08:45:24;;;;;;;1.83;1.38;;;;;;;;;;5114848;28;20028;-83
2022/10/10 08:48:06;;;;;;;2.85;1.90;;;;;;;;;;5096422;28;20034;-84
2022/10/10 08:50:47;;;;;;;2.15;1.33;;;;;;;;;;5112870;28;20062;-84
2022/10/10 08:53:26;;;;;;;2.13;1.70;;;;;;;;;;5094729;28;20028;-84
2022/10/10 08:55:52;;;;;;;1.83;1.60;;;;;;;;;;5093260;28;20022;-84
2022/10/10 08:58:29;;;;;;;2.63;1.60;;;;;;;;;;5096623;28;20019;-88
2022/10/10 09:01:07;;;;;;;2.17;1.63;;;;;;;;;;5110979;28;20024;-85
2022/10/10 09:03:40;;;;;;;3.55;1.73;;;;;;;;;;5103795;28;20103;-84
2022/10/10 09:06:16;;;;;;;2.28;1.42;;;;;;;;;;5093813;28;20028;-85
2022/10/10 09:08:47;;;;;;;3.13;1.67;;;;;;;;;;5110498;28;20024;-86
2022/10/10 09:11:35;;;;;;;4.68;1.92;;;;;;;;;;5094031;28;20110;-84
2022/10/10 09:14:06;;;;;;;1.77;1.60;;;;;;;;;;5093527;28;20031;-84
2022/10/10 09:17:03;;;;;;;2.20;1.60;;;;;;;;;;5108774;28;20039;-85
2022/10/10 09:19:29;;;;;;;4.18;2.10;;;;;;;;;;5095549;28;20115;-86
2022/10/10 09:21:59;;;;;;;2.22;1.63;;;;;;;;;;5114125;28;20066;-85
2022/10/10 09:24:57;;;;;;;2.60;1.58;;;;;;;;;;5092779;28;20054;-88
2022/10/10 09:27:30;;;;;;;1.48;1.30;;;;;;;;;;5086458;28;20063;-85
2022/10/10 09:29:59;;;;;;;2.40;1.65;;;;;;;;;;5108039;28;20031;-86
2022/10/10 09:32:31;;;;;;;3.03;1.90;;;;;;;;;;5091989;28;20047;-83
2022/10/10 09:35:13;;;;;;;3.13;2.17;;;;;;;;;;5086280;28;20015;-84
2022/10/10 09:37:40;;;;;;;2.22;1.40;;;;;;;;;;5109648;28;20027;-86
2022/10/10 09:40:16;;;;;;;3.10;2.17;;;;;;;;;;5092878;28;20478;-85
2022/10/10 09:42:43;;;;;;;3.10;1.63;;;;;;;;;;5111140;28;20036;-85
2022/10/10 09:45:21;;;;;;;2.15;1.63;;;;;;;;;;5113751;28;20840;-85
2022/10/10 09:47:53;;;;;;;3.83;1.65;;;;;;;;;;5093150;28;20038;-86
2022/10/10 09:50:19;;;;;;;2.22;1.83;;;;;;;;;;5111006;28;20027;-85
2022/10/10 09:52:46;;;;;;;2.13;1.52;;;;;;;;;;5111037;28;20502;-85
2022/10/10 09:55:29;;;;;;;2.28;1.80;;;;;;;;;;5110211;28;20019;-84
2022/10/10 09:58:00;;;;;;;2.95;1.55;;;;;;;;;;5109059;28;20023;-84
2022/10/10 10:00:36;;;;;;;2.47;1.70;;;;;;;;;;5110186;28;20023;-85
2022/10/10 10:03:13;;;;;;;5.53;2.45;;;;;;;;;;5093339;28;20062;-85
2022/10/10 10:05:43;;;;;;;2.70;1.75;;;;;;;;;;5109763;28;20418;-86
2022/10/10 10:08:20;;;;;;;;;;;;;;;;;;5095011;28;20088;-86
2022/10/10 10:10:46;;;;;;;2.47;1.50;;;;;;;;;;5090483;28;19959;-83
2022/10/10 10:13:20;;;;;;;2.20;1.83;;;;;;;;;;5106357;28;20066;-83
2022/10/10 10:15:55;;;;;;;5.53;2.33;;;;;;;;;;5090077;28;20063;-85
2022/10/10 10:18:29;;;;;;;3.40;1.55;;;;;;;;;;5106518;28;20039;-85
2022/10/10 10:21:18;;;;;;;2.72;1.65;;;;;;;;;;5092375;28;20067;-85
2022/10/10 10:23:55;;;;;;;;;;;;;;;;;;5110715;28;20115;-87
2022/10/10 10:26:21;;;;;;;3.58;1.75;;;;;;;;;;5091788;28;19915;-86
2022/10/10 10:28:49;;;;;;;2.70;2.00;;;;;;;;;;5092172;28;20043;-86
2022/10/10 10:31:19;;;;;;;2.63;1.92;;;;;;;;;;5109624;28;20052;-83
2022/10/10 10:33:44;;;;;;;;;;;;;;;;;;5105677;28;20019;-84
2022/10/10 10:36:38;;;;;;;1.60;1.33;;;;;;;;;;5110237;28;19919;-87
2022/10/10 10:39:25;;;;;;;2.83;1.65;;;;;;;;;;5109349;28;20495;-85
2022/10/10 10:41:57;;;;;;;2.58;1.67;;;;;;;;;;5090865;28;20076;-85
2022/10/10 10:44:42;;;;;;;2.83;1.90;;;;;;;;;;5089634;28;20031;-90
2022/10/10 10:47:26;;;;;;;4.05;1.90;;;;;;;;;;5091415;28;20043;-84
2022/10/10 10:50:13;;;;;;;3.90;1.27;;;;;;;;;;5111537;28;20028;-84
2022/10/10 10:52:54;;;;;;;1.75;1.50;;;;;;;;;;5091408;28;20031;-84
2022/10/10 10:55:31;;;;;;;1.83;1.40;;;;;;;;;;5111506;28;20047;-87
2022/10/10 10:58:21;;;;;;;6.55;2.10;;;;;;;;;;5108351;28;21513;-84
2022/10/10 11:01:13;;;;;;;2.50;2.22;;;;;;;;;;5089619;28;20027;-86
2022/10/10 11:03:50;;;;;;;2.25;1.80;;;;;;;;;;5108717;28;20039;-84
2022/10/10 11:06:22;;;;;;;3.13;1.80;;;;;;;;;;5109599;28;20020;-86
2022/10/10 11:09:05;;;;;;;2.15;1.83;;;;;;;;;;5110076;28;20486;-86
2022/10/10 11:12:05;;;;;;;2.60;1.73;;;;;;;;;;5107344;28;20031;-85
2022/10/10 11:14:36;;;;;;;2.30;1.73;;;;;;;;;;5111272;28;20028;-83
2022/10/10 11:17:27;;;;;;;1.92;1.63;;;;;;;;;;5111500;28;20032;-84
2022/10/10 11:20:19;;;;;;;3.45;2.15;;;;;;;;;;5108971;28;20419;-84
2022/10/10 11:22:51;;;;;;;3.85;1.85;;;;;;;;;;5111867;28;20043;-84
2022/10/10 11:25:24;;;;;;;2.60;1.70;;;;;;;;;;5093706;28;20157;-85
2022/10/10 11:28:00;;;;;;;2.53;1.90;;;;;;;;;;5091546;28;20055;-85
2022/10/10 11:30:33;;;;;;;2.75;2.05;;;;;;;;;;5092418;28;20023;-84
2022/10/10 11:33:01;;;;;;;2.42;1.85;;;;;;;;;;5093390;28;20051;-84
2022/10/10 11:35:45;;;;;;;2.53;1.75;;;;;;;;;;5112271;28;20019;-85
2022/10/10 11:38:32;;;;;;;3.60;2.78;;;;;;;;;;5088046;28;20375;-85
2022/10/10 11:41:12;;;;;;;4.78;2.03;;;;;;;;;;5090889;28;20360;-85
2022/10/10 11:43:54;;;;;;;3.47;2.55;;;;;;;;;;5091311;28;20463;-88
2022/10/10 11:46:35;;;;;;;2.47;1.63;;;;;;;;;;5111207;28;20024;-87
2022/10/10 11:49:00;;;;;;;2.33;1.77;;;;;;;;;;5109765;28;20536;-84
2022/10/10 11:51:53;;;;;;;2.30;1.77;;;;;;;;;;5094404;28;20110;-84
2022/10/10 11:54:34;;;;;;;2.40;1.73;;;;;;;;;;5094240;28;20033;-84
2022/10/10 11:57:06;;;;;;;3.67;1.70;;;;;;;;;;5109747;28;20375;-85
2022/10/10 11:59:39;;;;;;;2.47;1.85;;;;;;;;;;5115510;28;20031;-84
2022/10/10 12:02:19;;;;;;;1.92;1.73;;;;;;;;;;5097115;28;20024;-84
2022/10/10 12:04:45;;;;;;;2.53;1.48;;;;;;;;;;5113779;28;21980;-84
2022/10/10 12:07:24;;;;;;;3.70;2.17;;;;;;;;;;5095922;28;20115;-84
2022/10/10 12:10:14;;;;;;;2.88;2.08;;;;;;;;;;5114227;28;20024;-84
2022/10/10 12:12:43;;;;;;;3.78;2.30;;;;;;;;;;5108964;28;20043;-84
2022/10/10 12:15:16;;;;;;;2.42;1.70;;;;;;;;;;5094223;28;20020;-85
2022/10/10 12:17:44;;;;;;;2.95;1.83;;;;;;;;;;5095836;28;20039;-85
2022/10/10 12:20:31;;;;;;;4.28;1.50;;;;;;;;;;5097221;28;20034;-84
2022/10/10 12:23:29;;;;;;;2.90;1.90;;;;;;;;;;5096348;28;20459;-85
2022/10/10 12:25:55;;;;;;;1.70;1.48;;;;;;;;;;5111044;28;20039;-85
2022/10/10 12:28:27;;;;;;;2.92;2.03;;;;;;;;;;5114280;28;20024;-84
2022/10/10 12:30:55;;;;;;;3.33;1.77;;;;;;;;;;5112248;27;20023;-88
2022/10/10 12:33:43;;;;;;;1.88;1.50;;;;;;;;;;5109388;27;20019;-84
2022/10/10 12:36:18;;;;;;;3.97;2.17;;;;;;;;;;5095313;28;20072;-85
2022/10/10 12:39:04;;;;;;;2.75;1.75;;;;;;;;;;5114265;28;20031;-85
2022/10/10 12:41:48;;;;;;;2.13;1.52;;;;;;;;;;5114046;28;20070;-84
2022/10/10 12:44:13;;;;;;;3.42;1.67;;;;;;;;;;5113436;28;20047;-85
2022/10/10 12:46:40;;;;;;;5.85;2.03;;;;;;;;;;5094570;28;20067;-85
2022/10/10 12:49:14;;;;;;;2.78;1.70;;;;;;;;;;5092959;28;20783;-84
2022/10/10 12:51:42;;;;;;;2.45;1.60;;;;;;;;;;5111285;28;20435;-85
2022/10/10 12:54:17;;;;;;;2.22;1.77;;;;;;;;;;5112745;28;20019;-86
2022/10/10 12:56:46;;;;;;;3.58;1.73;;;;;;;;;;5113390;28;20027;-85
2022/10/10 12:59:24;;;;;;;3.25;2.42;;;;;;;;;;5110463;28;20054;-86
2022/10/10 13:01:56;;;;;;;2.05;1.50;;;;;;;;;;5093201;28;20083;-85
2022/10/10 13:04:24;;;;;;;2.33;1.50;;;;;;;;;;5094650;28;20054;-85
2022/10/10 13:06:54;;;;;;;2.97;1.88;;;;;;;;;;5092760;28;20388;-87
2022/10/10 13:09:30;;;;;;;1.75;1.38;;;;;;;;;;5110235;28;20050;-84
2022/10/10 13:11:58;;;;;;;2.05;1.75;;;;;;;;;;5109446;28;20072;-88
2022/10/10 13:14:26;;;;;;;1.95;1.50;;;;;;;;;;5106591;28;20019;-86
2022/10/10 13:16:52;;;;;;;3.80;1.88;;;;;;;;;;5088547;28;20851;-85
2022/10/10 13:19:22;;;;;;;2.95;1.63;;;;;;;;;;5113779;28;20026;-86
2022/10/10 13:21:50;;;;;;;2.08;1.88;;;;;;;;;;5095130;28;20035;-86
2022/10/10 13:24:19;;;;;;;2.15;1.60;;;;;;;;;;5090088;28;20039;-86
2022/10/10 13:26:51;;;;;;;2.28;1.65;;;;;;;;;;5109694;28;20035;-85
2022/10/10 13:29:22;;;;;;;1.75;1.55;;;;;;;;;;5110089;28;20040;-83
2022/10/10 13:31:49;;;;;;;2.20;1.77;;;;;;;;;;5093645;28;20027;-83
2022/10/10 13:34:21;;;;;;;2.63;1.65;;;;;;;;;;5111756;28;20028;-84
2022/10/10 13:36:47;;;;;;;2.70;1.95;;;;;;;;;;5110714;28;20031;-87
2022/10/10 13:39:16;;;;;;;2.38;1.80;;;;;;;;;;5110790;28;20044;-86
2022/10/10 13:41:46;;;;;;;4.35;2.20;;;;;;;;;;5111835;28;20019;-85
2022/10/10 13:44:24;;;;;;;5.45;1.85;;;;;;;;;;5113405;28;20020;-87
2022/10/10 13:46:50;;;;;;;2.40;1.92;;;;;;;;;;5091885;28;20081;-84
2022/10/10 13:49:24;;;;;;;2.10;1.55;;;;;;;;;;5091600;27;20031;-81
2022/10/10 13:52:18;;;;;;;3.05;2.08;;;;;;;;;;5109726;28;20023;-83
2022/10/10 13:54:47;;;;;;;3.28;1.90;;;;;;;;;;5103941;28;20016;-83
2022/10/10 13:57:16;;;;;;;1.65;1.38;;;;;;;;;;5090746;28;20080;-84
2022/10/10 13:59:43;;;;;;;5.40;2.17;;;;;;;;;;5091068;28;20039;-83
2022/10/10 14:02:13;;;;;;;2.42;1.63;;;;;;;;;;5109406;28;20086;-83
2022/10/10 14:04:46;;;;;;;2.47;1.83;;;;;;;;;;5108542;28;20432;-83
2022/10/10 14:07:21;;;;;;;2.22;1.38;;;;;;;;;;5111140;28;20054;-82
2022/10/10 14:09:55;;;;;;;2.03;1.23;;;;;;;;;;5108492;28;20106;-83
2022/10/10 14:12:34;;;;;;;2.80;2.05;;;;;;;;;;5090767;28;20032;-82
2022/10/10 14:15:01;;;;;;;2.43;1.77;;;;;;;;;;5108315;28;20050;-82
2022/10/10 14:17:28;;;;;;;2.97;1.60;;;;;;;;;;5111220;28;20028;-82
2022/10/10 14:19:54;;;;;;;3.80;2.10;;;;;;;;;;5107618;28;20115;-83
2022/10/10 14:22:20;;;;;;;2.13;1.45;;;;;;;;;;5092069;28;20058;-84
2022/10/10 14:24:46;;;;;;;3.17;1.52;;;;;;;;;;5107574;27;20044;-81
2022/10/10 14:27:22;;;;;;;2.47;1.90;;;;;;;;;;5092686;28;20088;-84
2022/10/10 14:29:49;;;;;;;1.88;1.42;;;;;;;;;;5110158;28;20098;-82
2022/10/10 14:32:15;;;;;;;2.40;1.45;;;;;;;;;;5102947;28;20024;-82
2022/10/10 14:34:41;;;;;;;3.15;1.80;;;;;;;;;;5109906;28;20034;-81
2022/10/10 14:37:25;;;;;;;1.63;1.20;;;;;;;;;;5112322;28;20027;-83
2022/10/10 14:39:51;;;;;;;4.22;2.00;;;;;;;;;;5110044;28;20079;-82
2022/10/10 14:42:18;;;;;;;2.20;1.67;;;;;;;;;;5112297;28;20027;-82
2022/10/10 14:44:44;;;;;;;3.03;2.28;;;;;;;;;;5094904;28;20027;-82
2022/10/10 14:47:19;;;;;;;3.25;2.17;;;;;;;;;;5109979;28;20471;-82
2022/10/10 14:49:45;;;;;;;1.75;1.40;;;;;;;;;;5088380;28;20035;-81
2022/10/10 14:52:11;;;;;;;5.30;1.95;;;;;;;;;;5105747;28;20032;-83
2022/10/10 14:54:37;;;;;;;2.25;1.50;;;;;;;;;;5108296;28;20034;-82
2022/10/10 14:57:03;;;;;;;2.78;1.80;;;;;;;;;;5084590;28;20031;-85
2022/10/10 14:59:30;;;;;;;6.32;1.70;;;;;;;;;;5105011;28;20020;-83
2022/10/10 15:01:55;;;;;;;3.67;1.73;;;;;;;;;;5093122;28;20032;-82